createdAt,value
2019-02-06T00:01:08.421Z,92.28
2019-02-06T00:03:38.835Z,92.54
2019-02-06T00:06:09.345Z,93.57
2019-02-06T00:08:39.781Z,94.00
2019-02-06T00:11:10.424Z,93.84
2019-02-06T00:13:40.701Z,94.41
2019-02-06T00:16:11.154Z,94.14
2019-02-06T00:18:41.615Z,93.72
2019-02-06T00:21:12.475Z,93.99
2019-02-06T00:23:42.820Z,94.69
2019-02-06T00:26:13.597Z,94.87
2019-02-06T00:28:43.972Z,94.93
2019-02-06T00:31:14.448Z,94.80
2019-02-06T00:33:44.852Z,94.86
2019-02-06T00:36:15.130Z,94.97
2019-02-06T00:38:45.546Z,95.33
2019-02-06T00:41:15.851Z,95.64
2019-02-06T00:43:46.195Z,96.23
2019-02-06T00:46:16.526Z,96.66
2019-02-06T00:48:47.862Z,96.62
2019-02-06T00:51:19.184Z,97.12
2019-02-06T00:53:49.783Z,95.97
2019-02-06T00:56:20.065Z,96.96
2019-02-06T00:58:50.358Z,97.37
2019-02-06T01:01:21.140Z,97.81
2019-02-06T01:03:51.506Z,97.98
2019-02-06T01:06:21.814Z,98.01
2019-02-06T01:08:52.289Z,98.51
2019-02-06T01:11:22.552Z,98.98
2019-02-06T01:13:52.890Z,98.99
2019-02-06T01:16:23.218Z,99.55
2019-02-06T01:18:53.571Z,99.31
2019-02-06T01:21:24.355Z,99.32
2019-02-06T01:23:54.781Z,99.41
2019-02-06T01:26:24.963Z,99.78
2019-02-06T01:28:55.129Z,100.00
2019-02-06T01:31:27.588Z,100.00
2019-02-06T01:33:57.966Z,100.00
2019-02-06T01:36:28.395Z,100.00
2019-02-06T01:38:58.840Z,100.00
2019-02-06T01:41:29.191Z,100.00
2019-02-06T01:43:59.356Z,100.00
2019-02-06T01:46:29.503Z,100.00
2019-02-06T01:48:59.773Z,100.00
2019-02-06T01:51:30.146Z,100.00
2019-02-06T01:54:00.380Z,100.00
2019-02-06T01:56:30.823Z,100.00
2019-02-06T01:59:01.100Z,100.00
2019-02-06T02:01:31.472Z,100.00
2019-02-06T02:04:01.809Z,100.00
2019-02-06T02:06:32.241Z,100.00
2019-02-06T02:09:04.400Z,100.00
2019-02-06T02:11:34.853Z,100.00
2019-02-06T02:14:05.511Z,100.00
2019-02-06T02:16:35.897Z,100.00
2019-02-06T02:19:06.991Z,100.00
2019-02-06T02:21:37.436Z,100.00
2019-02-06T02:24:07.850Z,100.00
2019-02-06T02:26:38.175Z,100.00
2019-02-06T02:29:08.655Z,100.00
2019-02-06T02:31:39.162Z,100.00
2019-02-06T02:34:09.570Z,100.00
2019-02-06T02:36:39.937Z,100.00
2019-02-06T02:39:10.732Z,100.00
2019-02-06T02:41:41.150Z,100.00
2019-02-06T02:44:11.594Z,100.00
2019-02-06T02:46:42.134Z,100.00
2019-02-06T02:49:12.563Z,100.00
2019-02-06T02:51:44.431Z,100.00
2019-02-06T02:54:14.984Z,100.00
2019-02-06T02:56:45.513Z,100.00
2019-02-06T02:59:16.360Z,100.00
2019-02-06T03:01:56.693Z,100.00
2019-02-06T03:04:36.952Z,100.00
2019-02-06T03:07:07.505Z,100.00
2019-02-06T03:09:38.509Z,100.00
2019-02-06T03:12:08.973Z,100.00
2019-02-06T03:14:39.150Z,100.00
2019-02-06T03:17:09.398Z,100.00
2019-02-06T03:19:39.622Z,100.00
2019-02-06T03:22:09.866Z,100.00
2019-02-06T03:24:40.147Z,100.00
2019-02-06T03:27:10.459Z,100.00
2019-02-06T03:29:40.614Z,100.00
2019-02-06T03:32:11.021Z,100.00
2019-02-06T03:34:41.407Z,100.00
2019-02-06T03:37:12.080Z,100.00
2019-02-06T03:39:42.380Z,100.00
2019-02-06T03:42:12.689Z,100.00
2019-02-06T03:44:42.887Z,100.00
2019-02-06T03:47:13.204Z,100.00
2019-02-06T03:49:43.575Z,100.00
2019-02-06T03:52:14.199Z,100.00
2019-02-06T03:54:44.396Z,100.00
2019-02-06T03:57:14.841Z,100.00
2019-02-06T03:59:45.171Z,100.00
2019-02-06T04:02:15.391Z,100.00
2019-02-06T04:04:45.621Z,100.00
2019-02-06T04:07:16.341Z,100.00
2019-02-06T04:09:46.619Z,100.00
2019-02-06T04:12:16.909Z,100.00
2019-02-06T04:14:47.131Z,100.00
2019-02-06T04:17:17.345Z,100.00
2019-02-06T04:19:47.813Z,100.00
2019-02-06T04:22:18.244Z,100.00
2019-02-06T04:24:51.586Z,100.00
2019-02-06T04:27:20.825Z,100.00
2019-02-06T04:29:51.167Z,100.00
2019-02-06T04:32:23.375Z,100.00
2019-02-06T04:34:53.275Z,100.00
2019-02-06T04:37:31.857Z,100.00
2019-02-06T04:40:02.343Z,100.00
2019-02-06T04:42:32.582Z,100.00
2019-02-06T04:45:02.806Z,100.00
2019-02-06T04:47:41.244Z,100.00
2019-02-06T04:50:12.545Z,100.00
2019-02-06T04:52:42.912Z,100.00
2019-02-06T04:55:14.906Z,100.00
2019-02-06T04:57:46.330Z,100.00
2019-02-06T05:00:23.327Z,100.00
2019-02-06T05:02:53.816Z,100.00
2019-02-06T05:05:24.189Z,100.00
2019-02-06T05:07:54.559Z,100.00
2019-02-06T05:10:24.898Z,100.00
2019-02-06T05:12:55.192Z,100.00
2019-02-06T05:15:25.645Z,100.00
2019-02-06T05:17:56.110Z,100.00
2019-02-06T05:20:39.411Z,100.00
2019-02-06T05:23:10.809Z,100.00
2019-02-06T05:25:41.161Z,100.00
2019-02-06T05:28:11.621Z,100.00
2019-02-06T05:30:42.024Z,100.00
2019-02-06T05:33:12.363Z,100.00
2019-02-06T05:35:42.673Z,100.00
2019-02-06T05:38:12.947Z,100.00
2019-02-06T05:40:43.408Z,100.00
2019-02-06T05:43:13.643Z,100.00
2019-02-06T05:45:43.891Z,100.00
2019-02-06T05:48:14.247Z,100.00
2019-02-06T05:50:44.713Z,100.00
2019-02-06T05:53:14.852Z,100.00
2019-02-06T05:55:45.087Z,100.00
2019-02-06T05:58:15.364Z,100.00
2019-02-06T06:00:47.631Z,100.00
2019-02-06T06:03:18.021Z,100.00
2019-02-06T06:05:48.541Z,100.00
2019-02-06T06:08:18.830Z,100.00
2019-02-06T06:10:49.056Z,100.00
2019-02-06T06:13:19.377Z,100.00
2019-02-06T06:15:49.824Z,100.00
2019-02-06T06:18:21.958Z,100.00
2019-02-06T06:20:52.641Z,100.00
2019-02-06T06:23:22.908Z,100.00
2019-02-06T06:25:53.165Z,100.00
2019-02-06T06:28:23.510Z,100.00
2019-02-06T06:30:53.798Z,100.00
2019-02-06T06:33:24.088Z,100.00
2019-02-06T06:35:54.668Z,100.00
2019-02-06T06:38:25.128Z,100.00
2019-02-06T06:40:55.482Z,100.00
2019-02-06T06:43:25.792Z,100.00
2019-02-06T06:45:56.067Z,100.00
2019-02-06T06:48:26.352Z,100.00
2019-02-06T06:50:56.801Z,100.00
2019-02-06T06:53:27.066Z,99.72
2019-02-06T06:55:57.288Z,99.66
2019-02-06T06:58:27.740Z,99.46
2019-02-06T07:00:58.105Z,99.37
2019-02-06T07:03:28.705Z,99.15
2019-02-06T07:05:58.926Z,98.88
2019-02-06T07:08:29.208Z,98.84
2019-02-06T07:10:59.598Z,98.45
2019-02-06T07:13:29.917Z,98.48
2019-02-06T07:16:00.499Z,98.66
2019-02-06T07:18:31.030Z,100.00
2019-02-06T07:21:01.836Z,100.00
2019-02-06T07:23:32.328Z,97.89
2019-02-06T07:26:02.695Z,97.40
2019-02-06T07:28:32.983Z,97.20
2019-02-06T07:31:03.815Z,97.12
2019-02-06T07:33:34.159Z,97.29
2019-02-06T07:36:04.627Z,96.14
2019-02-06T07:38:34.914Z,95.58
2019-02-06T07:41:05.269Z,95.46
2019-02-06T07:43:35.586Z,95.12
2019-02-06T07:46:07.366Z,94.84
2019-02-06T07:48:38.778Z,94.22
2019-02-06T07:51:09.172Z,94.07
2019-02-06T07:53:39.541Z,93.61
2019-02-06T07:56:09.953Z,93.03
2019-02-06T07:58:40.378Z,92.67
2019-02-06T08:01:10.819Z,92.47
2019-02-06T08:03:41.052Z,91.76
2019-02-06T08:06:12.473Z,90.81
2019-02-06T08:08:42.884Z,90.92
2019-02-06T08:11:14.094Z,91.74
2019-02-06T08:13:44.695Z,91.73
2019-02-06T08:16:15.052Z,91.49
2019-02-06T08:18:45.352Z,91.56
2019-02-06T08:21:15.665Z,90.26
2019-02-06T08:23:45.999Z,89.25
2019-02-06T08:26:16.386Z,88.71
2019-02-06T08:28:46.713Z,87.81
2019-02-06T08:31:16.958Z,95.52
2019-02-06T08:33:47.313Z,83.80
2019-02-06T08:36:17.741Z,82.67
2019-02-06T08:38:48.714Z,82.02
2019-02-06T08:41:20.146Z,80.78
2019-02-06T08:43:50.359Z,80.26
2019-02-06T08:46:20.659Z,78.87
2019-02-06T08:48:50.935Z,78.82
2019-02-06T08:51:21.260Z,78.67
2019-02-06T08:53:51.526Z,77.78
2019-02-06T08:56:21.901Z,77.81
2019-02-06T08:59:01.245Z,76.74
2019-02-06T09:01:31.584Z,76.53
2019-02-06T09:04:01.869Z,75.45
2019-02-06T09:06:32.162Z,75.13
2019-02-06T09:09:02.555Z,74.07
2019-02-06T09:11:32.775Z,73.19
2019-02-06T09:14:03.279Z,73.60
2019-02-06T09:16:33.653Z,72.48
2019-02-06T09:19:03.975Z,72.27
2019-02-06T09:21:34.762Z,70.84
2019-02-06T09:24:05.139Z,71.28
2019-02-06T09:26:36.289Z,70.17
2019-02-06T09:29:07.059Z,70.48
2019-02-06T09:31:37.525Z,70.84
2019-02-06T09:34:09.770Z,70.02
2019-02-06T09:36:39.940Z,70.13
2019-02-06T09:39:12.166Z,69.40
2019-02-06T09:41:42.647Z,69.27
2019-02-06T09:44:13.013Z,69.24
2019-02-06T09:46:43.256Z,68.56
2019-02-06T09:49:15.115Z,68.32
2019-02-06T09:51:45.675Z,68.05
2019-02-06T09:54:15.871Z,67.56
2019-02-06T09:56:46.184Z,68.09
2019-02-06T09:59:16.296Z,68.33
2019-02-06T10:01:46.543Z,67.75
2019-02-06T10:04:16.959Z,67.75
2019-02-06T10:06:47.353Z,66.85
2019-02-06T10:09:23.025Z,66.71
2019-02-06T10:11:49.649Z,66.56
2019-02-06T10:14:19.829Z,66.68
2019-02-06T10:16:50.461Z,66.25
2019-02-06T10:19:20.720Z,65.58
2019-02-06T10:21:53.592Z,65.63
2019-02-06T10:24:23.040Z,64.99
2019-02-06T10:26:53.326Z,64.53
2019-02-06T10:29:23.695Z,65.29
2019-02-06T10:31:54.337Z,66.02
2019-02-06T10:34:24.541Z,65.96
2019-02-06T10:36:54.875Z,66.09
2019-02-06T10:39:34.256Z,65.80
2019-02-06T10:41:57.157Z,65.92
2019-02-06T10:44:27.658Z,66.30
2019-02-06T10:46:57.862Z,65.78
2019-02-06T10:49:28.203Z,65.02
2019-02-06T10:51:58.593Z,65.64
2019-02-06T10:54:28.874Z,66.00
2019-02-06T10:56:59.082Z,65.44
2019-02-06T10:59:29.747Z,64.10
2019-02-06T11:02:00.047Z,65.03
2019-02-06T11:04:30.361Z,63.56
2019-02-06T11:07:00.705Z,63.87
2019-02-06T11:09:30.906Z,63.08
2019-02-06T11:12:01.247Z,62.40
2019-02-06T11:14:31.579Z,63.60
2019-02-06T11:17:04.849Z,63.55
2019-02-06T11:19:35.002Z,62.58
2019-02-06T11:22:05.548Z,61.95
2019-02-06T11:24:35.763Z,62.60
2019-02-06T11:27:06.703Z,62.42
2019-02-06T11:29:36.932Z,61.94
2019-02-06T11:32:07.278Z,61.90
2019-02-06T11:34:37.479Z,61.82
2019-02-06T11:37:07.962Z,61.89
2019-02-06T11:39:38.312Z,62.27
2019-02-06T11:42:08.584Z,61.18
2019-02-06T11:44:38.871Z,61.38
2019-02-06T11:47:09.187Z,61.53
2019-02-06T11:49:42.420Z,61.75
2019-02-06T11:52:12.817Z,61.32
2019-02-06T11:54:43.581Z,61.21
2019-02-06T11:57:15.373Z,61.15
2019-02-06T11:59:45.674Z,60.74
2019-02-06T12:02:17.459Z,60.60
2019-02-06T12:04:47.687Z,60.61
2019-02-06T12:07:18.451Z,60.53
2019-02-06T12:09:48.954Z,59.79
2019-02-06T12:12:19.193Z,60.23
2019-02-06T12:14:49.404Z,60.32
2019-02-06T12:17:19.757Z,59.66
2019-02-06T12:19:50.020Z,58.98
2019-02-06T12:22:20.484Z,59.03
2019-02-06T12:24:50.784Z,59.45
2019-02-06T12:27:21.168Z,59.19
2019-02-06T12:29:51.541Z,58.52
2019-02-06T12:32:22.015Z,58.35
2019-02-06T12:34:52.166Z,58.22
2019-02-06T12:37:23.788Z,58.52
2019-02-06T12:39:54.200Z,58.33
2019-02-06T12:42:24.602Z,58.25
2019-02-06T12:44:54.949Z,58.50
2019-02-06T12:47:26.902Z,58.82
2019-02-06T12:49:57.239Z,57.96
2019-02-06T12:52:27.590Z,57.80
2019-02-06T12:54:57.889Z,57.65
2019-02-06T12:57:36.409Z,57.33
2019-02-06T13:00:00.190Z,57.46
2019-02-06T13:02:30.439Z,57.35
2019-02-06T13:05:00.777Z,57.03
2019-02-06T13:07:31.344Z,56.77
2019-02-06T13:10:01.572Z,56.42
2019-02-06T13:12:31.721Z,56.60
2019-02-06T13:15:01.991Z,56.15
2019-02-06T13:17:33.436Z,56.15
2019-02-06T13:20:03.994Z,55.87
2019-02-06T13:22:34.299Z,55.53
2019-02-06T13:25:05.466Z,55.37
2019-02-06T13:27:35.762Z,55.03
2019-02-06T13:30:10.993Z,54.77
2019-02-06T13:32:41.214Z,54.91
2019-02-06T13:35:12.846Z,54.60
2019-02-06T13:37:43.096Z,54.44
2019-02-06T13:40:17.035Z,54.95
2019-02-06T13:42:47.301Z,55.03
2019-02-06T13:45:21.812Z,54.86
2019-02-06T13:47:52.132Z,54.26
2019-02-06T13:50:23.288Z,54.68
2019-02-06T13:52:53.641Z,53.65
2019-02-06T13:55:24.040Z,53.64
2019-02-06T13:57:54.398Z,53.76
2019-02-06T14:00:29.116Z,54.10
2019-02-06T14:02:59.692Z,53.98
2019-02-06T14:05:32.201Z,53.97
2019-02-06T14:08:12.133Z,54.23
2019-02-06T14:10:43.588Z,53.23
2019-02-06T14:13:14.597Z,53.47
2019-02-06T14:15:47.485Z,53.50
2019-02-06T14:18:17.993Z,53.13
2019-02-06T14:20:52.733Z,53.27
2019-02-06T14:23:35.941Z,53.44
2019-02-06T14:26:38.679Z,52.94
2019-02-06T14:30:15.301Z,52.63
2019-02-06T14:33:32.894Z,52.05
2019-02-06T14:36:40.587Z,52.38
2019-02-06T14:39:50.977Z,52.04
2019-02-06T14:43:30.161Z,51.96
2019-02-06T14:46:54.114Z,51.38
2019-02-06T14:50:22.330Z,51.20
2019-02-06T14:53:30.245Z,50.67
2019-02-06T14:56:44.925Z,51.14
2019-02-06T14:59:42.445Z,50.40
2019-02-06T15:03:14.114Z,51.15
2019-02-06T15:06:26.271Z,50.47
2019-02-06T15:09:55.602Z,51.20
2019-02-06T15:13:00.367Z,50.86
2019-02-06T15:16:08.736Z,50.89
2019-02-06T15:19:41.021Z,50.30
2019-02-06T15:22:48.931Z,50.34
2019-02-06T15:25:56.890Z,50.85
2019-02-06T15:29:06.908Z,50.96
2019-02-06T15:32:11.271Z,50.77
2019-02-06T15:35:36.505Z,51.02
2019-02-06T15:38:46.808Z,50.97
2019-02-06T15:41:50.718Z,51.32
2019-02-06T15:44:43.697Z,51.42
2019-02-06T15:48:02.475Z,51.68
2019-02-06T15:51:50.624Z,51.87
2019-02-06T15:55:35.638Z,51.29
2019-02-06T15:59:05.116Z,51.25
2019-02-06T16:01:55.163Z,52.05
2019-02-06T16:05:37.818Z,52.17
2019-02-06T16:08:58.221Z,51.93
2019-02-06T16:12:14.068Z,51.44
2019-02-06T16:15:09.234Z,53.23
2019-02-06T16:18:29.723Z,53.73
2019-02-06T16:21:53.039Z,54.31
2019-02-06T16:24:50.717Z,54.10
2019-02-06T16:27:56.831Z,54.08
2019-02-06T16:31:33.568Z,55.18
2019-02-06T16:34:42.377Z,56.30
2019-02-06T16:38:04.742Z,55.33
2019-02-06T16:41:07.978Z,56.90
2019-02-06T16:44:06.360Z,59.65
2019-02-06T16:47:24.138Z,60.81
2019-02-06T16:50:34.675Z,61.48
2019-02-06T16:54:20.634Z,64.17
2019-02-06T16:57:58.512Z,65.29
2019-02-06T17:01:25.744Z,67.87
2019-02-06T17:04:31.336Z,69.61
2019-02-06T17:07:28.379Z,70.53
2019-02-06T17:10:57.221Z,70.87
2019-02-06T17:14:33.491Z,69.58
2019-02-06T17:17:50.460Z,70.79
2019-02-06T17:21:20.569Z,71.41
2019-02-06T17:24:38.609Z,71.95
2019-02-06T17:28:24.082Z,72.04
2019-02-06T17:31:49.425Z,72.46
2019-02-06T17:34:48.265Z,72.49
2019-02-06T17:38:24.710Z,72.62
2019-02-06T17:41:25.214Z,71.95
2019-02-06T17:44:28.736Z,72.62
2019-02-06T17:47:48.107Z,73.44
2019-02-06T17:51:42.179Z,73.13
2019-02-06T17:54:47.693Z,73.09
2019-02-06T17:57:17.896Z,72.34
2019-02-06T17:59:48.465Z,72.12
2019-02-06T18:02:19.246Z,69.83
2019-02-06T18:04:50.367Z,68.60
2019-02-06T18:07:20.852Z,66.83
2019-02-06T18:09:51.113Z,67.90
2019-02-06T18:12:26.545Z,68.08
2019-02-06T18:14:53.664Z,67.09
2019-02-06T18:17:23.964Z,68.53
2019-02-06T18:19:55.235Z,67.82
2019-02-06T18:22:25.641Z,67.92
2019-02-06T18:24:56.211Z,67.71
2019-02-06T18:27:26.618Z,68.17
2019-02-06T18:30:00.426Z,67.94
2019-02-06T18:32:32.738Z,67.21
2019-02-06T18:35:03.638Z,68.02
2019-02-06T18:37:43.399Z,67.52
2019-02-06T18:40:12.420Z,66.94
2019-02-06T18:42:42.976Z,67.59
2019-02-06T18:45:15.881Z,68.57
2019-02-06T18:47:46.511Z,68.46
2019-02-06T18:50:21.243Z,69.22
2019-02-06T18:52:51.740Z,71.18
2019-02-06T18:55:22.209Z,72.52
2019-02-06T18:57:53.240Z,73.16
2019-02-06T19:00:33.364Z,74.71
2019-02-06T19:03:13.210Z,75.76
2019-02-06T19:05:43.831Z,76.08
2019-02-06T19:08:15.000Z,76.13
2019-02-06T19:10:46.109Z,76.78
2019-02-06T19:13:17.791Z,76.89
2019-02-06T19:15:56.151Z,76.83
2019-02-06T19:18:20.947Z,77.68
2019-02-06T19:20:52.549Z,78.76
2019-02-06T19:23:23.058Z,79.67
2019-02-06T19:25:53.613Z,79.53
2019-02-06T19:28:24.468Z,79.60
2019-02-06T19:30:55.633Z,80.60
2019-02-06T19:33:26.302Z,80.77
2019-02-06T19:35:56.719Z,80.48
2019-02-06T19:38:27.105Z,81.83
2019-02-06T19:40:57.770Z,82.07
2019-02-06T19:43:28.222Z,82.34
2019-02-06T19:45:58.638Z,82.89
2019-02-06T19:48:29.265Z,83.19
2019-02-06T19:51:00.633Z,83.47
2019-02-06T19:53:30.991Z,83.78
2019-02-06T19:56:01.445Z,83.64
2019-02-06T19:58:32.205Z,83.82
2019-02-06T20:01:02.637Z,84.43
2019-02-06T20:03:33.195Z,85.12
2019-02-06T20:06:05.543Z,85.35
2019-02-06T20:08:35.723Z,85.73
2019-02-06T20:11:06.196Z,85.45
2019-02-06T20:13:36.981Z,85.58
2019-02-06T20:16:07.331Z,86.14
2019-02-06T20:18:37.733Z,86.34
2019-02-06T20:21:09.021Z,86.26
2019-02-06T20:23:39.414Z,86.17
2019-02-06T20:26:09.861Z,86.22
2019-02-06T20:28:40.527Z,86.37
2019-02-06T20:31:10.912Z,85.87
2019-02-06T20:33:41.105Z,86.14
2019-02-06T20:36:11.357Z,86.78
2019-02-06T20:38:41.684Z,87.73
2019-02-06T20:41:12.006Z,87.87
2019-02-06T20:43:42.760Z,88.20
2019-02-06T20:46:13.793Z,87.72
2019-02-06T20:48:44.110Z,87.53
2019-02-06T20:51:14.528Z,87.66
2019-02-06T20:53:48.148Z,88.35
2019-02-06T20:56:18.575Z,88.11
2019-02-06T20:58:49.574Z,89.24
2019-02-06T21:01:19.901Z,89.74
2019-02-06T21:03:50.174Z,90.21
2019-02-06T21:06:21.257Z,90.40
2019-02-06T21:08:51.776Z,91.42
2019-02-06T21:11:23.176Z,91.36
2019-02-06T21:13:53.529Z,92.08
2019-02-06T21:16:23.792Z,91.68
2019-02-06T21:18:54.230Z,91.45
2019-02-06T21:21:24.584Z,90.64
2019-02-06T21:23:54.874Z,91.54
2019-02-06T21:26:25.378Z,92.01
2019-02-06T21:28:55.806Z,91.80
2019-02-06T21:31:26.147Z,92.07
2019-02-06T21:33:56.459Z,92.77
2019-02-06T21:36:26.839Z,92.19
2019-02-06T21:38:58.379Z,92.04
2019-02-06T21:41:29.081Z,92.08
2019-02-06T21:43:59.348Z,92.11
2019-02-06T21:46:29.740Z,91.63
2019-02-06T21:49:00.055Z,91.19
2019-02-06T21:51:30.368Z,92.01
2019-02-06T21:54:00.512Z,92.72
2019-02-06T21:56:30.775Z,92.41
2019-02-06T21:59:01.122Z,91.44
2019-02-06T22:01:31.625Z,90.88
2019-02-06T22:04:02.069Z,90.76
2019-02-06T22:06:32.394Z,90.07
2019-02-06T22:09:04.311Z,88.73
2019-02-06T22:11:34.773Z,88.37
2019-02-06T22:14:05.312Z,88.83
2019-02-06T22:16:35.834Z,89.19
2019-02-06T22:19:07.209Z,89.97
2019-02-06T22:21:38.935Z,90.86
2019-02-06T22:24:09.351Z,91.16
2019-02-06T22:26:39.781Z,90.90
2019-02-06T22:29:10.249Z,91.73
2019-02-06T22:31:40.765Z,92.16
2019-02-06T22:34:18.846Z,92.22
2019-02-06T22:36:49.168Z,92.35
2019-02-06T22:39:20.659Z,92.13
2019-02-06T22:41:50.955Z,92.41
2019-02-06T22:44:21.308Z,92.10
2019-02-06T22:46:51.950Z,92.49
2019-02-06T22:49:22.256Z,92.45
2019-02-06T22:51:52.393Z,92.48
2019-02-06T22:54:22.816Z,92.71
2019-02-06T22:56:53.180Z,92.78
2019-02-06T22:59:23.516Z,92.58
2019-02-06T23:01:57.899Z,92.95
2019-02-06T23:04:28.307Z,93.34
2019-02-06T23:06:59.142Z,92.78
2019-02-06T23:09:29.514Z,92.30
2019-02-06T23:11:59.831Z,92.12
2019-02-06T23:14:30.389Z,91.85
2019-02-06T23:17:00.712Z,92.30
2019-02-06T23:19:31.112Z,91.79
2019-02-06T23:22:01.380Z,91.68
2019-02-06T23:24:31.719Z,91.80
2019-02-06T23:27:04.474Z,90.97
2019-02-06T23:29:34.896Z,90.29
2019-02-06T23:32:05.527Z,90.13
2019-02-06T23:34:35.817Z,88.88
2019-02-06T23:37:06.345Z,88.12
2019-02-06T23:39:36.814Z,85.89
2019-02-06T23:42:07.191Z,83.18
2019-02-06T23:44:37.632Z,84.48
2019-02-06T23:47:08.015Z,84.95
2019-02-06T23:49:38.325Z,84.50
2019-02-06T23:52:08.669Z,83.93
2019-02-06T23:54:39.219Z,84.27
2019-02-06T23:57:09.612Z,84.45
2019-02-06T23:59:40.022Z,84.79
